createdAt,value
2022-09-21T00:00:35.338Z,10.39
2022-09-21T00:01:35.309Z,10.36
2022-09-21T00:02:35.324Z,10.36
2022-09-21T00:03:35.314Z,10.34
2022-09-21T00:04:35.282Z,10.32
2022-09-21T00:05:35.250Z,10.29
2022-09-21T00:06:35.253Z,10.26
2022-09-21T00:07:35.241Z,10.25
2022-09-21T00:08:35.252Z,10.25
2022-09-21T00:09:35.213Z,10.25
2022-09-21T00:10:35.189Z,10.22
2022-09-21T00:11:35.193Z,10.22
2022-09-21T00:12:35.172Z,10.20
2022-09-21T00:13:35.161Z,10.22
2022-09-21T00:14:35.139Z,10.20
2022-09-21T00:15:35.119Z,10.22
2022-09-21T00:16:35.173Z,10.22
2022-09-21T00:17:35.098Z,10.18
2022-09-21T00:18:35.099Z,10.20
2022-09-21T00:19:35.099Z,10.17
2022-09-21T00:20:35.082Z,10.17
2022-09-21T00:21:35.058Z,10.16
2022-09-21T00:22:35.028Z,10.16
2022-09-21T00:23:42.604Z,10.13
2022-09-21T00:24:35.008Z,10.13
2022-09-21T00:25:35.000Z,10.10
2022-09-21T00:26:34.990Z,10.10
2022-09-21T00:27:34.981Z,10.10
2022-09-21T00:28:34.955Z,10.11
2022-09-21T00:29:34.964Z,10.11
2022-09-21T00:30:34.925Z,10.10
2022-09-21T00:31:35.017Z,10.11
2022-09-21T00:32:34.911Z,10.09
2022-09-21T00:33:34.901Z,10.10
2022-09-21T00:34:34.885Z,10.06
2022-09-21T00:35:34.858Z,10.06
2022-09-21T00:36:34.870Z,10.07
2022-09-21T00:37:34.848Z,10.04
2022-09-21T00:38:34.836Z,10.04
2022-09-21T00:39:34.825Z,10.01
2022-09-21T00:40:34.887Z,10.02
2022-09-21T00:41:34.784Z,10.01
2022-09-21T00:42:34.782Z,10.02
2022-09-21T00:43:34.756Z,9.99
2022-09-21T00:44:34.762Z,9.99
2022-09-21T00:45:34.787Z,9.99
2022-09-21T00:46:34.735Z,9.96
2022-09-21T00:47:34.705Z,9.95
2022-09-21T00:48:34.703Z,9.93
2022-09-21T00:49:34.673Z,9.93
2022-09-21T00:50:34.697Z,9.93
2022-09-21T00:51:34.678Z,9.91
2022-09-21T00:52:34.643Z,9.91
2022-09-21T00:53:34.623Z,9.91
2022-09-21T00:54:34.626Z,9.89
2022-09-21T00:55:34.612Z,9.86
2022-09-21T00:56:34.582Z,9.88
2022-09-21T00:57:34.587Z,9.89
2022-09-21T00:58:34.578Z,9.88
2022-09-21T00:59:34.565Z,9.88
2022-09-21T01:00:34.556Z,9.91
2022-09-21T01:01:34.519Z,9.89
2022-09-21T01:02:34.518Z,9.86
2022-09-21T01:03:34.503Z,9.86
2022-09-21T01:04:34.489Z,9.86
2022-09-21T01:05:34.514Z,9.85
2022-09-21T01:06:34.458Z,9.81
2022-09-21T01:07:34.456Z,9.80
2022-09-21T01:08:34.448Z,9.80
2022-09-21T01:09:34.504Z,9.81
2022-09-21T01:10:34.430Z,9.81
2022-09-21T01:11:34.391Z,9.81
2022-09-21T01:12:34.388Z,9.83
2022-09-21T01:13:34.360Z,9.83
2022-09-21T01:14:34.363Z,9.83
2022-09-21T01:15:34.369Z,9.85
2022-09-21T01:16:34.384Z,9.85
2022-09-21T01:17:34.322Z,9.80
2022-09-21T01:18:34.304Z,9.80
2022-09-21T01:19:34.280Z,9.78
2022-09-21T01:20:34.292Z,9.78
2022-09-21T01:21:34.269Z,9.77
2022-09-21T01:22:34.263Z,9.74
2022-09-21T01:23:34.242Z,9.74
2022-09-21T01:24:34.219Z,9.73
2022-09-21T01:25:34.208Z,9.71
2022-09-21T01:26:34.209Z,9.73
2022-09-21T01:27:34.186Z,9.73
2022-09-21T01:28:34.181Z,9.70
2022-09-21T01:29:34.161Z,9.70
2022-09-21T01:30:34.146Z,9.68
2022-09-21T01:31:34.225Z,9.70
2022-09-21T01:32:34.130Z,9.70
2022-09-21T01:33:34.106Z,9.70
2022-09-21T01:34:34.113Z,9.70
2022-09-21T01:35:34.077Z,9.71
2022-09-21T01:36:34.079Z,9.70
2022-09-21T01:37:34.079Z,9.68
2022-09-21T01:38:34.047Z,9.68
2022-09-21T01:39:34.026Z,9.65
2022-09-21T01:40:35.828Z,9.62
2022-09-21T01:41:34.007Z,9.60
2022-09-21T01:42:34.033Z,9.60
2022-09-21T01:43:33.972Z,9.60
2022-09-21T01:44:33.979Z,9.60
2022-09-21T01:45:33.974Z,9.60
2022-09-21T01:46:33.958Z,9.59
2022-09-21T01:47:33.937Z,9.58
2022-09-21T01:48:33.909Z,9.56
2022-09-21T01:49:33.887Z,9.55
2022-09-21T01:50:33.882Z,9.55
2022-09-21T01:51:33.881Z,9.53
2022-09-21T01:52:33.865Z,9.53
2022-09-21T01:53:33.845Z,9.50
2022-09-21T01:54:33.847Z,9.49
2022-09-21T01:55:33.821Z,9.49
2022-09-21T01:56:33.803Z,9.48
2022-09-21T01:57:33.828Z,9.48
2022-09-21T01:58:33.787Z,9.45
2022-09-21T01:59:33.765Z,9.45
2022-09-21T02:00:33.800Z,9.44
2022-09-21T02:01:33.734Z,9.42
2022-09-21T02:02:33.743Z,9.42
2022-09-21T02:03:33.739Z,9.44
2022-09-21T02:04:33.715Z,9.42
2022-09-21T02:05:33.705Z,9.42
2022-09-21T02:06:33.685Z,9.42
2022-09-21T02:07:33.686Z,9.41
2022-09-21T02:08:33.654Z,9.42
2022-09-21T02:09:33.642Z,9.40
2022-09-21T02:10:33.620Z,9.38
2022-09-21T02:11:33.626Z,9.40
2022-09-21T02:12:33.625Z,9.40
2022-09-21T02:13:33.598Z,9.35
2022-09-21T02:14:33.585Z,9.38
2022-09-21T02:15:33.561Z,9.37
2022-09-21T02:16:33.575Z,9.37
2022-09-21T02:17:33.546Z,9.35
2022-09-21T02:18:33.534Z,9.32
2022-09-21T02:19:33.500Z,9.34
2022-09-21T02:20:33.532Z,9.31
2022-09-21T02:21:33.494Z,9.32
2022-09-21T02:22:33.461Z,9.31
2022-09-21T02:23:33.470Z,9.31
2022-09-21T02:24:33.443Z,9.30
2022-09-21T02:25:33.422Z,9.30
2022-09-21T02:26:33.416Z,9.30
2022-09-21T02:27:33.398Z,9.27
2022-09-21T02:28:33.419Z,9.26
2022-09-21T02:29:33.392Z,9.24
2022-09-21T02:30:33.372Z,9.24
2022-09-21T02:31:33.400Z,9.24
2022-09-21T02:32:33.352Z,9.26
2022-09-21T02:33:33.362Z,9.23
2022-09-21T02:34:33.325Z,9.22
2022-09-21T02:35:33.310Z,9.22
2022-09-21T02:36:33.288Z,9.20
2022-09-21T02:37:33.267Z,9.20
2022-09-21T02:38:33.247Z,9.20
2022-09-21T02:39:33.270Z,9.20
2022-09-21T02:40:33.276Z,9.20
2022-09-21T02:41:33.244Z,9.20
2022-09-21T02:42:33.206Z,9.19
2022-09-21T02:43:33.207Z,9.19
2022-09-21T02:44:33.188Z,9.17
2022-09-21T02:45:33.198Z,9.19
2022-09-21T02:46:33.189Z,9.16
2022-09-21T02:47:33.159Z,9.17
2022-09-21T02:48:33.139Z,9.17
2022-09-21T02:49:33.139Z,9.16
2022-09-21T02:50:33.109Z,9.17
2022-09-21T02:51:33.095Z,9.16
2022-09-21T02:52:33.080Z,9.15
2022-09-21T02:53:33.074Z,9.15
2022-09-21T02:54:33.062Z,9.13
2022-09-21T02:55:33.033Z,9.13
2022-09-21T02:56:33.023Z,9.10
2022-09-21T02:57:33.019Z,9.08
2022-09-21T02:58:32.996Z,9.04
2022-09-21T02:59:33.000Z,9.04
2022-09-21T03:00:33.000Z,9.03
2022-09-21T03:01:32.990Z,9.04
2022-09-21T03:02:32.943Z,9.03
2022-09-21T03:03:32.930Z,9.03
2022-09-21T03:04:32.935Z,9.03
2022-09-21T03:05:32.893Z,9.01
2022-09-21T03:06:32.883Z,9.00
2022-09-21T03:07:32.895Z,9.01
2022-09-21T03:08:32.853Z,8.98
2022-09-21T03:09:32.864Z,8.98
2022-09-21T03:10:32.826Z,8.98
2022-09-21T03:11:32.856Z,9.00
2022-09-21T03:12:32.815Z,8.98
2022-09-21T03:13:32.802Z,8.98
2022-09-21T03:14:32.789Z,8.98
2022-09-21T03:15:32.781Z,9.00
2022-09-21T03:16:32.753Z,8.96
2022-09-21T03:17:32.778Z,8.98
2022-09-21T03:18:32.745Z,8.97
2022-09-21T03:19:32.721Z,8.96
2022-09-21T03:20:32.730Z,8.96
2022-09-21T03:21:32.710Z,8.97
2022-09-21T03:22:32.693Z,8.94
2022-09-21T03:23:32.674Z,8.94
2022-09-21T03:24:32.651Z,8.93
2022-09-21T03:25:32.673Z,8.94
2022-09-21T03:26:32.639Z,8.94
2022-09-21T03:27:32.619Z,8.94
2022-09-21T03:28:32.601Z,8.91
2022-09-21T03:29:32.613Z,8.91
2022-09-21T03:30:32.602Z,8.88
2022-09-21T03:31:32.633Z,8.89
2022-09-21T03:32:32.549Z,8.89
2022-09-21T03:33:32.543Z,8.91
2022-09-21T03:34:32.539Z,8.89
2022-09-21T03:35:32.542Z,8.89
2022-09-21T03:36:32.510Z,8.88
2022-09-21T03:37:32.490Z,8.89
2022-09-21T03:38:32.468Z,8.88
2022-09-21T03:39:32.459Z,8.88
2022-09-21T03:40:32.490Z,8.88
2022-09-21T03:41:32.461Z,8.86
2022-09-21T03:42:32.417Z,8.85
2022-09-21T03:43:32.426Z,8.83
2022-09-21T03:44:32.409Z,8.85
2022-09-21T03:45:32.400Z,8.85
2022-09-21T03:46:32.448Z,8.85
2022-09-21T03:47:32.370Z,8.83
2022-09-21T03:48:32.356Z,8.83
2022-09-21T03:49:32.328Z,8.83
2022-09-21T03:50:32.329Z,8.82
2022-09-21T03:51:32.306Z,8.83
2022-09-21T03:52:32.310Z,8.85
2022-09-21T03:53:32.299Z,8.83
2022-09-21T03:54:32.277Z,8.83
2022-09-21T03:55:32.271Z,8.86
2022-09-21T03:56:32.258Z,8.89
2022-09-21T03:57:32.250Z,8.93
2022-09-21T03:58:32.230Z,8.93
2022-09-21T03:59:32.205Z,8.94
2022-09-21T04:00:32.183Z,8.94
2022-09-21T04:01:32.216Z,8.94
2022-09-21T04:02:32.231Z,8.94
2022-09-21T04:03:32.160Z,8.96
2022-09-21T04:04:32.131Z,8.93
2022-09-21T04:05:32.128Z,8.93
2022-09-21T04:06:32.104Z,8.93
2022-09-21T04:07:32.117Z,8.93
2022-09-21T04:08:32.087Z,8.96
2022-09-21T04:09:32.084Z,8.96
2022-09-21T04:10:32.052Z,8.96
2022-09-21T04:11:32.043Z,8.97
2022-09-21T04:12:32.045Z,8.96
2022-09-21T04:13:32.012Z,8.94
2022-09-21T04:14:32.016Z,8.94
2022-09-21T04:15:32.082Z,8.91
2022-09-21T04:16:31.986Z,8.91
2022-09-21T04:17:31.974Z,8.88
2022-09-21T04:18:31.975Z,8.86
2022-09-21T04:19:31.931Z,8.85
2022-09-21T04:20:31.934Z,8.85
2022-09-21T04:21:31.909Z,8.82
2022-09-21T04:22:31.888Z,8.80
2022-09-21T04:23:31.925Z,8.79
2022-09-21T04:24:31.874Z,8.79
2022-09-21T04:25:31.874Z,8.75
2022-09-21T04:26:31.853Z,8.73
2022-09-21T04:27:31.829Z,8.68
2022-09-21T04:28:31.835Z,8.67
2022-09-21T04:29:31.818Z,8.67
2022-09-21T04:30:35.578Z,8.65
2022-09-21T04:31:32.792Z,8.64
2022-09-21T04:32:31.779Z,8.64
2022-09-21T04:33:31.777Z,8.64
2022-09-21T04:34:31.750Z,8.61
2022-09-21T04:35:31.730Z,8.61
2022-09-21T04:36:36.290Z,8.60
2022-09-21T04:37:32.698Z,8.58
2022-09-21T04:38:31.695Z,8.57
2022-09-21T04:39:31.702Z,8.54
2022-09-21T04:40:31.731Z,8.52
2022-09-21T04:41:31.646Z,8.54
2022-09-21T04:42:31.627Z,8.52
2022-09-21T04:43:31.628Z,8.52
2022-09-21T04:44:31.628Z,8.52
2022-09-21T04:45:31.611Z,8.50
2022-09-21T04:46:31.673Z,8.50
2022-09-21T04:47:31.577Z,8.49
2022-09-21T04:48:31.569Z,8.49
2022-09-21T04:49:31.544Z,8.49
2022-09-21T04:50:31.539Z,8.47
2022-09-21T04:51:31.529Z,8.45
2022-09-21T04:52:31.522Z,8.45
2022-09-21T04:53:31.486Z,8.42
2022-09-21T04:54:31.487Z,8.42
2022-09-21T04:55:31.515Z,8.40
2022-09-21T04:56:31.464Z,8.39
2022-09-21T04:57:31.449Z,8.37
2022-09-21T04:58:31.428Z,8.37
2022-09-21T04:59:31.440Z,8.37
2022-09-21T05:00:31.395Z,8.37
2022-09-21T05:01:31.457Z,8.37
2022-09-21T05:02:31.379Z,8.37
2022-09-21T05:03:31.401Z,8.39
2022-09-21T05:04:31.357Z,8.37
2022-09-21T05:05:31.338Z,8.39
2022-09-21T05:06:31.347Z,8.39
2022-09-21T05:07:31.354Z,8.39
2022-09-21T05:08:31.283Z,8.37
2022-09-21T05:09:31.297Z,8.36
2022-09-21T05:10:31.276Z,8.34
2022-09-21T05:11:31.270Z,8.32
2022-09-21T05:12:31.266Z,8.32
2022-09-21T05:13:31.236Z,8.32
2022-09-21T05:14:31.276Z,8.31
2022-09-21T05:15:31.309Z,8.31
2022-09-21T05:16:31.199Z,8.31
2022-09-21T05:17:31.208Z,8.29
2022-09-21T05:18:31.168Z,8.29
2022-09-21T05:19:31.158Z,8.29
2022-09-21T05:20:31.132Z,8.29
2022-09-21T05:21:31.202Z,8.29
2022-09-21T05:22:31.116Z,8.32
2022-09-21T05:23:31.116Z,8.31
2022-09-21T05:24:31.073Z,8.32
2022-09-21T05:25:31.063Z,8.32
2022-09-21T05:26:31.061Z,8.34
2022-09-21T05:27:31.042Z,8.34
2022-09-21T05:28:31.054Z,8.39
2022-09-21T05:29:31.045Z,8.37
2022-09-21T05:30:31.072Z,8.39
2022-09-21T05:31:31.069Z,8.40
2022-09-21T05:32:30.998Z,8.42
2022-09-21T05:33:30.981Z,8.42
2022-09-21T05:34:34.328Z,8.40
2022-09-21T05:35:31.954Z,8.42
2022-09-21T05:36:30.942Z,8.45
2022-09-21T05:37:30.909Z,8.45
2022-09-21T05:38:30.911Z,8.45
2022-09-21T05:39:30.889Z,8.45
2022-09-21T05:40:30.944Z,8.46
2022-09-21T05:41:30.859Z,8.47
2022-09-21T05:42:30.839Z,8.50
2022-09-21T05:43:30.861Z,8.50
2022-09-21T05:44:30.840Z,8.54
2022-09-21T05:45:30.812Z,8.54
2022-09-21T05:46:30.800Z,8.54
2022-09-21T05:47:30.781Z,8.55
2022-09-21T05:48:30.782Z,8.57
2022-09-21T05:49:30.757Z,8.57
2022-09-21T05:50:30.730Z,8.58
2022-09-21T05:51:30.732Z,8.57
2022-09-21T05:52:30.789Z,8.58
2022-09-21T05:53:30.724Z,8.58
2022-09-21T05:54:30.715Z,8.61
2022-09-21T05:55:30.687Z,8.63
2022-09-21T05:56:30.689Z,8.65
2022-09-21T05:57:31.130Z,8.67
2022-09-21T05:58:30.640Z,8.65
2022-09-21T05:59:30.638Z,8.68
2022-09-21T06:00:30.643Z,8.67
2022-09-21T06:01:30.645Z,8.70
2022-09-21T06:02:30.620Z,8.70
2022-09-21T06:03:30.580Z,8.70
2022-09-21T06:04:30.568Z,8.70
2022-09-21T06:05:30.575Z,8.71
2022-09-21T06:06:30.546Z,8.71
2022-09-21T06:07:30.514Z,8.75
2022-09-21T06:08:30.502Z,8.76
2022-09-21T06:09:30.522Z,8.79
2022-09-21T06:10:30.534Z,8.82
2022-09-21T06:11:30.475Z,8.82
2022-09-21T06:12:30.476Z,8.86
2022-09-21T06:13:30.449Z,8.86
2022-09-21T06:14:30.461Z,8.89
2022-09-21T06:15:30.445Z,8.91
2022-09-21T06:16:30.450Z,8.94
2022-09-21T06:17:30.382Z,8.96
2022-09-21T06:18:30.685Z,8.98
2022-09-21T06:19:30.372Z,9.04
2022-09-21T06:20:30.407Z,9.04
2022-09-21T06:21:30.376Z,9.08
2022-09-21T06:22:30.342Z,9.10
2022-09-21T06:23:30.314Z,9.15
2022-09-21T06:24:37.407Z,9.19
2022-09-21T06:25:32.011Z,9.23
2022-09-21T06:26:30.302Z,9.26
2022-09-21T06:27:32.973Z,9.27
2022-09-21T06:28:30.243Z,9.31
2022-09-21T06:29:30.231Z,9.34
2022-09-21T06:30:30.280Z,9.35
2022-09-21T06:31:30.216Z,9.40
2022-09-21T06:32:30.188Z,9.42
2022-09-21T06:33:30.181Z,9.45
2022-09-21T06:34:30.199Z,9.49
2022-09-21T06:35:30.145Z,9.52
2022-09-21T06:36:30.151Z,9.52
2022-09-21T06:37:30.136Z,9.55
2022-09-21T06:38:30.128Z,9.56
2022-09-21T06:39:30.097Z,9.60
2022-09-21T06:40:30.145Z,9.63
2022-09-21T06:41:30.064Z,9.68
2022-09-21T06:42:30.071Z,9.71
2022-09-21T06:43:30.058Z,9.75
2022-09-21T06:44:30.031Z,9.77
2022-09-21T06:45:30.026Z,9.78
2022-09-21T06:46:30.013Z,9.81
2022-09-21T06:47:30.017Z,9.85
2022-09-21T06:48:29.998Z,9.91
2022-09-21T06:49:29.981Z,9.93
2022-09-21T06:50:29.961Z,9.93
2022-09-21T06:51:29.936Z,9.96
2022-09-21T06:52:29.943Z,9.98
2022-09-21T06:53:29.924Z,10.01
2022-09-21T06:54:29.901Z,10.09
2022-09-21T06:55:29.907Z,10.13
2022-09-21T06:56:29.875Z,10.16
2022-09-21T06:57:29.862Z,10.17
2022-09-21T06:58:29.872Z,10.17
2022-09-21T06:59:29.846Z,10.18
2022-09-21T07:00:29.830Z,10.17
2022-09-21T07:01:29.957Z,10.18
2022-09-21T07:02:29.794Z,10.20
2022-09-21T07:03:29.835Z,10.18
2022-09-21T07:04:29.768Z,10.20
2022-09-21T07:05:29.758Z,10.24
2022-09-21T07:06:29.754Z,10.28
2022-09-21T07:07:29.745Z,10.28
2022-09-21T07:10:30.775Z,10.35
2022-09-21T07:11:29.678Z,10.36
2022-09-21T07:12:29.684Z,10.42
2022-09-21T07:13:29.654Z,10.44
2022-09-21T07:14:29.649Z,10.49
2022-09-21T07:15:29.620Z,10.51
2022-09-21T07:16:29.685Z,10.55
2022-09-21T07:17:29.598Z,10.58
2022-09-21T07:18:30.373Z,10.60
2022-09-21T07:19:29.587Z,10.63
2022-09-21T07:20:29.582Z,10.65
2022-09-21T07:21:29.550Z,10.68
2022-09-21T07:22:29.530Z,10.69
2022-09-21T07:23:29.531Z,10.69
2022-09-21T07:24:29.533Z,10.70
2022-09-21T07:25:29.489Z,10.73
2022-09-21T07:26:29.509Z,10.76
2022-09-21T07:27:29.471Z,10.78
2022-09-21T07:28:29.477Z,10.83
2022-09-21T07:29:29.438Z,10.86
2022-09-21T07:30:29.454Z,10.88
2022-09-21T07:31:29.436Z,10.90
2022-09-21T07:32:29.433Z,10.90
2022-09-21T07:33:33.904Z,10.93
2022-09-21T07:34:30.389Z,10.95
2022-09-21T07:35:29.402Z,10.98
2022-09-21T07:36:29.362Z,11.01
2022-09-21T07:37:29.349Z,10.99
2022-09-21T07:38:29.331Z,11.02
2022-09-21T07:39:29.305Z,11.03
2022-09-21T07:40:29.399Z,11.08
2022-09-21T07:41:29.333Z,11.12
2022-09-21T07:42:29.265Z,11.12
2022-09-21T07:43:29.279Z,11.16
2022-09-21T07:44:29.283Z,11.17
2022-09-21T07:45:29.274Z,11.17
2022-09-21T07:46:29.239Z,11.21
2022-09-21T07:47:29.218Z,11.24
2022-09-21T07:48:29.217Z,11.28
2022-09-21T07:49:29.174Z,11.33
2022-09-21T07:50:29.178Z,11.36
2022-09-21T07:51:29.186Z,11.39
2022-09-21T07:52:29.150Z,11.41
2022-09-21T07:53:29.136Z,11.42
2022-09-21T07:54:29.134Z,11.45
2022-09-21T07:55:29.116Z,11.48
2022-09-21T07:56:29.136Z,11.53
2022-09-21T07:57:29.088Z,11.54
2022-09-21T07:58:29.067Z,11.56
2022-09-21T07:59:29.042Z,11.60
2022-09-21T08:00:29.046Z,11.64
2022-09-21T08:01:29.086Z,11.66
2022-09-21T08:02:29.117Z,11.70
2022-09-21T08:03:29.006Z,11.74
2022-09-21T08:04:29.005Z,11.75
2022-09-21T08:05:28.992Z,11.77
2022-09-21T08:06:28.992Z,11.79
2022-09-21T08:07:28.964Z,11.81
2022-09-21T08:08:28.930Z,11.85
2022-09-21T08:09:28.928Z,11.90
2022-09-21T08:10:28.900Z,11.94
2022-09-21T08:11:28.917Z,11.97
2022-09-21T08:12:29.162Z,12.01
2022-09-21T08:13:28.874Z,12.03
2022-09-21T08:14:28.858Z,12.04
2022-09-21T08:15:48.821Z,12.05
2022-09-21T08:16:29.915Z,12.08
2022-09-21T08:17:28.831Z,12.08
2022-09-21T08:18:28.811Z,12.12
2022-09-21T08:19:28.777Z,12.18
2022-09-21T08:20:28.780Z,12.22
2022-09-21T08:21:28.772Z,12.25
2022-09-21T08:22:28.770Z,12.29
2022-09-21T08:23:28.753Z,12.30
2022-09-21T08:24:28.733Z,12.31
2022-09-21T08:25:28.708Z,12.31
2022-09-21T08:26:28.726Z,12.34
2022-09-21T08:27:28.736Z,12.34
2022-09-21T08:28:28.691Z,12.36
2022-09-21T08:29:28.686Z,12.37
2022-09-21T08:30:28.690Z,12.40
2022-09-21T08:31:28.699Z,12.41
2022-09-21T08:32:50.054Z,12.44
2022-09-21T08:33:29.985Z,12.49
2022-09-21T08:34:28.595Z,12.48
2022-09-21T08:35:28.570Z,12.48
2022-09-21T08:36:28.559Z,12.51
2022-09-21T08:37:28.546Z,12.52
2022-09-21T08:38:28.657Z,12.55
2022-09-21T08:39:28.532Z,12.56
2022-09-21T08:40:28.572Z,12.56
2022-09-21T08:41:28.496Z,12.59
2022-09-21T08:42:28.497Z,12.63
2022-09-21T08:43:28.479Z,12.69
2022-09-21T08:44:28.480Z,12.73
2022-09-21T08:45:28.991Z,12.77
2022-09-21T08:46:28.483Z,12.80
2022-09-21T08:47:28.564Z,12.77
2022-09-21T08:48:31.979Z,12.79
2022-09-21T08:49:29.396Z,12.77
2022-09-21T08:50:28.453Z,12.84
2022-09-21T08:51:28.367Z,12.81
2022-09-21T08:52:28.369Z,12.84
2022-09-21T08:53:28.336Z,12.85
2022-09-21T08:54:28.346Z,12.88
2022-09-21T08:55:28.363Z,12.89
2022-09-21T08:56:47.170Z,12.92
2022-09-21T08:57:29.297Z,12.95
2022-09-21T08:58:28.300Z,12.98
2022-09-21T08:59:28.265Z,13.03
2022-09-21T09:00:28.298Z,13.04
2022-09-21T09:01:28.332Z,13.09
2022-09-21T09:02:28.237Z,13.10
2022-09-21T09:03:28.215Z,13.12
2022-09-21T09:04:28.241Z,13.12
2022-09-21T09:05:28.196Z,13.14
2022-09-21T09:06:28.177Z,13.17
2022-09-21T09:07:28.178Z,13.17
2022-09-21T09:08:28.156Z,13.17
2022-09-21T09:09:28.138Z,13.21
2022-09-21T09:10:28.148Z,13.21
2022-09-21T09:11:28.115Z,13.25
2022-09-21T09:12:28.093Z,13.27
2022-09-21T09:13:28.074Z,13.28
2022-09-21T09:14:28.061Z,13.29
2022-09-21T09:15:28.106Z,13.31
2022-09-21T09:16:28.062Z,13.35
2022-09-21T09:17:28.046Z,13.32
2022-09-21T09:18:28.022Z,13.36
2022-09-21T09:19:28.012Z,13.39
2022-09-21T09:20:28.006Z,13.41
2022-09-21T09:21:31.800Z,13.44
2022-09-21T09:22:27.973Z,13.48
2022-09-21T09:23:27.954Z,13.53
2022-09-21T09:24:27.954Z,13.55
2022-09-21T09:25:27.931Z,13.59
2022-09-21T09:26:27.930Z,13.61
2022-09-21T09:27:27.917Z,13.63
2022-09-21T09:28:27.938Z,13.65
2022-09-21T09:29:27.879Z,13.68
2022-09-21T09:30:27.849Z,13.71
2022-09-21T09:31:27.914Z,13.73
2022-09-21T09:32:27.838Z,13.72
2022-09-21T09:33:27.842Z,13.73
2022-09-21T09:34:27.833Z,13.76
2022-09-21T09:35:27.787Z,13.79
2022-09-21T09:36:53.667Z,13.84
2022-09-21T09:37:28.767Z,13.87
2022-09-21T09:38:27.755Z,13.88
2022-09-21T09:39:27.750Z,13.91
2022-09-21T09:40:27.796Z,13.94
2022-09-21T09:41:27.731Z,13.96
2022-09-21T09:42:27.734Z,13.98
2022-09-21T09:43:27.696Z,13.94
2022-09-21T09:44:27.682Z,13.94
2022-09-21T09:45:27.670Z,13.93
2022-09-21T09:46:27.746Z,13.88
2022-09-21T09:47:27.660Z,13.88
2022-09-21T09:48:27.647Z,13.90
2022-09-21T09:49:27.608Z,13.90
2022-09-21T09:50:27.596Z,13.90
2022-09-21T09:51:27.609Z,13.90
2022-09-21T09:52:27.587Z,13.94
2022-09-21T09:53:27.564Z,13.99
2022-09-21T09:54:27.546Z,14.05
2022-09-21T09:55:27.540Z,14.09
2022-09-21T09:56:27.529Z,14.17
2022-09-21T09:57:27.522Z,14.21
2022-09-21T09:58:27.499Z,14.23
2022-09-21T09:59:27.487Z,14.24
2022-09-21T10:00:27.455Z,14.26
2022-09-21T10:01:27.554Z,14.27
2022-09-21T10:02:27.445Z,14.30
2022-09-21T10:03:27.428Z,14.30
2022-09-21T10:04:27.453Z,14.34
2022-09-21T10:05:27.407Z,14.36
2022-09-21T10:06:27.429Z,14.39
2022-09-21T10:07:27.385Z,14.41
2022-09-21T10:08:27.385Z,14.44
2022-09-21T10:09:27.346Z,14.45
2022-09-21T10:10:27.376Z,14.44
2022-09-21T10:11:27.311Z,14.41
2022-09-21T10:12:27.318Z,14.36
2022-09-21T10:13:27.310Z,14.36
2022-09-21T10:14:27.301Z,14.38
2022-09-21T10:15:27.260Z,14.38
2022-09-21T10:16:27.336Z,14.39
2022-09-21T10:17:27.257Z,14.38
2022-09-21T10:18:27.232Z,14.38
2022-09-21T10:19:27.224Z,14.39
2022-09-21T10:20:27.203Z,14.44
2022-09-21T10:21:27.183Z,14.42
2022-09-21T10:22:27.183Z,14.45
2022-09-21T10:23:27.162Z,14.48
2022-09-21T10:24:27.162Z,14.52
2022-09-21T10:25:27.145Z,14.52
2022-09-21T10:26:27.111Z,14.49
2022-09-21T10:27:27.125Z,14.53
2022-09-21T10:28:27.132Z,14.56
2022-09-21T10:29:27.091Z,14.59
2022-09-21T10:30:27.061Z,14.61
2022-09-21T10:31:27.201Z,14.63
2022-09-21T10:32:27.041Z,14.63
2022-09-21T10:33:27.041Z,14.64
2022-09-21T10:34:27.024Z,14.64
2022-09-21T10:35:27.007Z,14.67
2022-09-21T10:36:27.004Z,14.69
2022-09-21T10:37:27.002Z,14.71
2022-09-21T10:38:27.841Z,14.71
2022-09-21T10:39:27.160Z,14.74
2022-09-21T10:40:28.182Z,14.79
2022-09-21T10:41:27.085Z,14.78
2022-09-21T10:42:27.195Z,14.83
2022-09-21T10:43:28.416Z,14.85
2022-09-21T10:44:27.469Z,14.85
2022-09-21T10:45:26.941Z,14.85
2022-09-21T10:46:26.911Z,14.83
2022-09-21T10:47:26.862Z,14.86
2022-09-21T10:48:26.833Z,14.86
2022-09-21T10:49:26.829Z,14.93
2022-09-21T10:50:26.851Z,14.95
2022-09-21T10:51:26.813Z,15.00
2022-09-21T10:52:26.792Z,15.07
2022-09-21T10:53:26.780Z,15.09
2022-09-21T10:54:26.750Z,15.09
2022-09-21T10:55:26.755Z,15.09
2022-09-21T10:56:26.722Z,15.11
2022-09-21T10:57:26.710Z,15.11
2022-09-21T10:58:26.698Z,15.12
2022-09-21T10:59:26.702Z,15.12
2022-09-21T11:00:26.672Z,15.13
2022-09-21T11:01:26.733Z,15.12
2022-09-21T11:02:26.699Z,15.12
2022-09-21T11:03:26.640Z,15.15
2022-09-21T11:04:26.633Z,15.19
2022-09-21T11:05:26.632Z,15.27
2022-09-21T11:06:26.606Z,15.28
2022-09-21T11:07:26.600Z,15.31
2022-09-21T11:08:26.577Z,15.27
2022-09-21T11:09:26.554Z,15.27
2022-09-21T11:10:28.844Z,15.28
2022-09-21T11:11:26.546Z,15.28
2022-09-21T11:12:26.516Z,15.30
2022-09-21T11:13:26.498Z,15.31
2022-09-21T11:14:26.498Z,15.35
2022-09-21T11:15:26.559Z,15.41
2022-09-21T11:16:26.454Z,15.46
2022-09-21T11:17:26.474Z,15.52
2022-09-21T11:18:26.428Z,15.52
2022-09-21T11:19:26.438Z,15.51
2022-09-21T11:20:26.404Z,15.53
2022-09-21T11:21:26.411Z,15.55
2022-09-21T11:22:26.394Z,15.55
2022-09-21T11:23:26.378Z,15.55
2022-09-21T11:24:26.352Z,15.53
2022-09-21T11:25:26.357Z,15.49
2022-09-21T11:26:26.336Z,15.51
2022-09-21T11:27:26.343Z,15.48
2022-09-21T11:28:26.326Z,15.49
2022-09-21T11:30:26.275Z,15.53
2022-09-21T11:31:26.277Z,15.55
2022-09-21T11:32:26.273Z,15.56
2022-09-21T11:33:26.246Z,15.60
2022-09-21T11:34:26.244Z,15.58
2022-09-21T11:35:26.250Z,15.58
2022-09-21T11:36:26.214Z,15.58
2022-09-21T11:37:26.190Z,15.58
2022-09-21T11:38:26.336Z,15.60
2022-09-21T11:39:26.181Z,15.59
2022-09-21T11:40:26.174Z,15.62
2022-09-21T11:41:26.135Z,15.59
2022-09-21T11:42:26.147Z,15.58
2022-09-21T11:43:26.122Z,15.59
2022-09-21T11:44:26.111Z,15.59
2022-09-21T11:45:26.091Z,15.59
2022-09-21T11:46:26.180Z,15.56
2022-09-21T11:47:26.065Z,15.53
2022-09-21T11:48:26.075Z,15.52
2022-09-21T11:49:26.034Z,15.52
2022-09-21T11:50:30.658Z,15.52
2022-09-21T11:51:27.014Z,15.51
2022-09-21T11:52:26.002Z,15.49
2022-09-21T11:53:26.014Z,15.48
2022-09-21T11:54:25.973Z,15.48
2022-09-21T11:55:25.985Z,15.48
2022-09-21T11:56:25.929Z,15.51
2022-09-21T11:57:25.920Z,15.51
2022-09-21T11:58:25.912Z,15.52
2022-09-21T11:59:25.901Z,15.51
2022-09-21T12:00:25.887Z,15.52
2022-09-21T12:01:25.905Z,15.55
2022-09-21T12:02:26.083Z,15.56
2022-09-21T12:03:25.849Z,15.58
2022-09-21T12:04:25.841Z,15.59
2022-09-21T12:05:25.843Z,15.60
2022-09-21T12:06:25.855Z,15.64
2022-09-21T12:07:25.812Z,15.64
2022-09-21T12:08:25.775Z,15.64
2022-09-21T12:09:25.779Z,15.62
2022-09-21T12:10:25.752Z,15.60
2022-09-21T12:11:25.752Z,15.62
2022-09-21T12:12:25.739Z,15.67
2022-09-21T12:13:25.709Z,15.70
2022-09-21T12:14:25.777Z,15.73
2022-09-21T12:15:25.699Z,15.74
2022-09-21T12:16:25.762Z,15.78
2022-09-21T12:17:25.697Z,15.80
2022-09-21T12:18:25.662Z,15.78
2022-09-21T12:19:25.658Z,15.78
2022-09-21T12:20:25.631Z,15.77
2022-09-21T12:21:25.608Z,15.85
2022-09-21T12:22:25.632Z,15.84
2022-09-21T12:23:25.587Z,15.84
2022-09-21T12:24:29.866Z,15.91
2022-09-21T12:26:15.516Z,15.85
2022-09-21T12:27:15.510Z,15.77
2022-09-21T12:28:15.488Z,15.71
2022-09-21T12:29:17.135Z,15.67
2022-09-21T12:30:15.616Z,15.64
2022-09-21T12:31:15.460Z,15.59
2022-09-21T12:32:15.418Z,15.55
2022-09-21T12:33:15.438Z,15.52
2022-09-21T12:34:15.394Z,15.48
2022-09-21T12:35:15.374Z,15.41
2022-09-21T12:36:15.378Z,15.41
2022-09-21T12:37:15.364Z,15.38
2022-09-21T12:38:15.344Z,15.41
2022-09-21T12:39:15.334Z,15.41
2022-09-21T12:40:15.461Z,15.38
2022-09-21T12:41:15.376Z,15.35
2022-09-21T12:42:15.295Z,15.33
2022-09-21T12:43:15.293Z,15.33
2022-09-21T12:44:15.277Z,15.31
2022-09-21T12:45:15.255Z,15.28
2022-09-21T12:46:15.320Z,15.27
2022-09-21T12:47:15.237Z,15.25
2022-09-21T12:48:15.224Z,15.22
2022-09-21T12:49:15.192Z,15.22
2022-09-21T12:50:15.205Z,15.22
2022-09-21T12:51:15.172Z,15.20
2022-09-21T12:52:15.168Z,15.19
2022-09-21T12:53:15.185Z,15.19
2022-09-21T12:54:15.146Z,15.19
2022-09-21T12:55:17.275Z,15.16
2022-09-21T12:56:15.114Z,15.18
2022-09-21T12:57:38.246Z,15.16
2022-09-21T12:58:16.588Z,15.18
2022-09-21T12:59:15.076Z,15.16
2022-09-21T13:00:15.064Z,15.19
2022-09-21T13:01:15.172Z,15.20
2022-09-21T13:02:15.287Z,15.20
2022-09-21T13:03:15.019Z,15.20
2022-09-21T13:04:15.043Z,15.20
2022-09-21T13:05:14.994Z,15.23
2022-09-21T13:06:14.994Z,15.27
2022-09-21T13:07:14.975Z,15.27
2022-09-21T13:08:14.940Z,15.28